createdAt,value
2019-05-22T00:01:19.576Z,7.40
2019-05-22T00:04:05.460Z,13.70
2019-05-22T00:06:38.173Z,8.28
2019-05-22T00:09:11.643Z,10.63
2019-05-22T00:11:44.711Z,11.53
2019-05-22T00:14:16.690Z,11.03
2019-05-22T00:16:48.361Z,19.50
2019-05-22T00:19:21.661Z,11.93
2019-05-22T00:21:54.664Z,11.68
2019-05-22T00:24:26.604Z,9.73
2019-05-22T00:26:59.646Z,12.25
2019-05-22T00:29:32.322Z,10.00
2019-05-22T00:32:05.401Z,6.37
2019-05-22T00:34:37.874Z,12.03
2019-05-22T00:37:10.928Z,8.28
2019-05-22T00:39:46.306Z,13.15
2019-05-22T00:42:19.474Z,15.72
2019-05-22T00:44:52.715Z,9.73
2019-05-22T00:47:24.446Z,14.33
2019-05-22T00:49:57.942Z,10.75
2019-05-22T00:52:47.404Z,20.50
2019-05-22T00:55:38.198Z,13.65
2019-05-22T00:58:26.352Z,19.00
2019-05-22T01:00:59.402Z,16.50
2019-05-22T01:03:32.570Z,17.48
2019-05-22T01:06:05.869Z,16.00
2019-05-22T01:08:39.087Z,20.40
2019-05-22T01:11:12.253Z,29.37
2019-05-22T01:13:44.256Z,17.05
2019-05-22T01:16:17.638Z,17.90
2019-05-22T01:18:49.426Z,18.32
2019-05-22T01:21:23.981Z,15.28
2019-05-22T01:23:57.104Z,11.38
2019-05-22T01:26:28.756Z,13.95
2019-05-22T01:29:00.755Z,12.13
2019-05-22T01:31:33.894Z,8.63
2019-05-22T01:34:06.748Z,6.08
2019-05-22T01:36:39.871Z,6.62
2019-05-22T01:39:30.128Z,5.45
2019-05-22T01:42:03.248Z,9.70
2019-05-22T01:44:36.073Z,11.57
2019-05-22T01:47:13.914Z,10.98
2019-05-22T01:49:51.214Z,8.15
2019-05-22T01:52:24.324Z,10.35
2019-05-22T01:54:56.634Z,12.93
2019-05-22T01:57:29.704Z,9.13
2019-05-22T02:00:01.428Z,11.73
2019-05-22T02:02:34.642Z,16.25
2019-05-22T02:05:06.763Z,19.65
2019-05-22T02:07:38.462Z,17.30
2019-05-22T02:10:09.987Z,11.30
2019-05-22T02:13:01.042Z,11.03
2019-05-22T02:15:34.018Z,11.68
2019-05-22T02:18:08.201Z,9.88
2019-05-22T02:20:40.946Z,9.85
2019-05-22T02:23:12.993Z,16.17
2019-05-22T02:25:44.556Z,14.23
2019-05-22T02:28:16.267Z,31.70
2019-05-22T02:30:49.398Z,12.80
2019-05-22T02:33:22.504Z,7.90
2019-05-22T02:35:55.626Z,8.78
2019-05-22T02:38:28.398Z,9.93
2019-05-22T02:41:00.880Z,12.50
2019-05-22T02:43:33.052Z,8.60
2019-05-22T02:46:06.124Z,7.35
2019-05-22T02:48:42.145Z,7.67
2019-05-22T02:51:12.151Z,8.80
2019-05-22T02:53:44.602Z,9.65
2019-05-22T02:56:16.921Z,9.85
2019-05-22T02:58:48.558Z,11.08
2019-05-22T03:01:21.253Z,8.73
2019-05-22T03:03:52.896Z,15.50
2019-05-22T03:06:24.894Z,13.60
2019-05-22T03:09:02.321Z,10.13
2019-05-22T03:14:10.730Z,11.38
2019-05-22T03:16:56.001Z,8.43
2019-05-22T03:19:37.274Z,6.67
2019-05-22T03:22:23.127Z,9.50
2019-05-22T03:24:56.186Z,11.73
2019-05-22T03:27:41.577Z,7.53
2019-05-22T03:30:22.837Z,9.30
2019-05-22T03:32:56.098Z,10.58
2019-05-22T03:35:27.620Z,11.28
2019-05-22T03:38:00.486Z,11.83
2019-05-22T03:40:32.365Z,11.40
2019-05-22T03:43:16.804Z,8.93
2019-05-22T03:45:51.199Z,8.00
2019-05-22T03:48:22.949Z,10.28
2019-05-22T03:50:56.758Z,6.37
2019-05-22T03:53:28.678Z,6.42
2019-05-22T03:56:00.235Z,5.90
2019-05-22T03:58:31.994Z,5.47
2019-05-22T04:01:04.723Z,10.85
2019-05-22T04:03:36.817Z,8.45
2019-05-22T04:06:09.230Z,6.03
2019-05-22T04:08:41.006Z,8.58
2019-05-22T04:11:12.415Z,8.03
2019-05-22T04:13:44.159Z,7.10
2019-05-22T04:16:19.810Z,7.47
2019-05-22T04:18:51.646Z,4.10
2019-05-22T04:21:23.186Z,11.45
2019-05-22T04:23:54.663Z,9.18
2019-05-22T04:26:27.611Z,6.30
2019-05-22T04:28:59.173Z,6.60
2019-05-22T04:31:48.337Z,4.12
2019-05-22T04:34:21.199Z,4.83
2019-05-22T04:36:53.072Z,7.45
2019-05-22T04:39:25.583Z,10.13
2019-05-22T04:41:58.115Z,7.00
2019-05-22T04:44:30.728Z,7.15
2019-05-22T04:47:02.683Z,9.35
2019-05-22T04:49:34.311Z,6.97
2019-05-22T04:52:06.050Z,4.92
2019-05-22T04:54:37.775Z,8.20
2019-05-22T04:57:10.620Z,8.33
2019-05-22T04:59:42.306Z,6.25
2019-05-22T05:02:14.298Z,5.35
2019-05-22T05:04:45.766Z,5.08
2019-05-22T05:07:18.219Z,5.03
2019-05-22T05:09:50.094Z,6.08
2019-05-22T05:12:22.038Z,6.87
2019-05-22T05:14:53.806Z,5.97
2019-05-22T05:17:25.348Z,7.95
2019-05-22T05:19:57.049Z,4.05
2019-05-22T05:22:47.061Z,4.75
2019-05-22T05:25:19.015Z,8.75
2019-05-22T05:27:51.559Z,9.48
2019-05-22T05:30:50.284Z,12.63
2019-05-22T05:33:21.807Z,6.25
2019-05-22T05:35:53.553Z,8.95
2019-05-22T05:38:27.913Z,7.50
2019-05-22T05:40:59.597Z,9.05
2019-05-22T05:43:31.778Z,9.30
2019-05-22T05:46:03.848Z,6.35
2019-05-22T05:48:36.406Z,7.97
2019-05-22T05:51:10.554Z,5.50
2019-05-22T05:54:01.240Z,7.58
2019-05-22T05:56:33.917Z,6.65
2019-05-22T05:59:06.990Z,5.15
2019-05-22T06:01:42.623Z,6.75
2019-05-22T06:04:14.762Z,6.10
2019-05-22T06:06:48.938Z,10.03
2019-05-22T06:09:22.621Z,6.30
2019-05-22T06:12:04.759Z,7.55
2019-05-22T06:14:36.815Z,10.20
2019-05-22T06:17:46.135Z,7.42
2019-05-22T06:20:19.358Z,10.78
2019-05-22T06:23:05.731Z,7.30
2019-05-22T06:25:37.588Z,9.95
2019-05-22T06:28:09.169Z,4.92
2019-05-22T06:30:42.737Z,4.92
2019-05-22T06:33:23.234Z,9.38
2019-05-22T06:35:54.650Z,7.22
2019-05-22T06:38:48.531Z,9.73
2019-05-22T06:41:21.595Z,5.12
2019-05-22T06:44:24.167Z,5.10
2019-05-22T06:46:55.828Z,8.15
2019-05-22T06:49:37.385Z,8.55
2019-05-22T06:52:09.069Z,7.60
2019-05-22T06:54:41.114Z,8.03
2019-05-22T06:57:13.743Z,7.62
2019-05-22T06:59:46.502Z,11.83
2019-05-22T07:02:19.114Z,8.58
2019-05-22T07:04:51.106Z,5.75
2019-05-22T07:07:23.343Z,4.50
2019-05-22T07:09:55.413Z,5.42
2019-05-22T07:12:28.363Z,3.58
2019-05-22T07:15:08.334Z,7.10
2019-05-22T07:17:41.215Z,5.65
2019-05-22T07:20:13.006Z,4.75
2019-05-22T07:22:45.104Z,5.33
2019-05-22T07:25:17.171Z,4.72
2019-05-22T07:27:49.266Z,4.97
2019-05-22T07:30:20.784Z,4.12
2019-05-22T07:32:52.751Z,7.15
2019-05-22T07:35:24.891Z,7.20
2019-05-22T07:37:56.948Z,5.15
2019-05-22T07:40:28.682Z,4.55
2019-05-22T07:43:00.213Z,4.37
2019-05-22T07:45:32.027Z,5.78
2019-05-22T07:48:03.886Z,3.75
2019-05-22T07:50:37.221Z,4.05
2019-05-22T07:53:08.687Z,4.90
2019-05-22T07:55:39.945Z,5.15
2019-05-22T07:58:12.639Z,6.70
2019-05-22T08:00:46.763Z,5.37
2019-05-22T08:03:18.589Z,3.95
2019-05-22T08:05:51.626Z,4.75
2019-05-22T08:08:23.524Z,4.25
2019-05-22T08:10:55.750Z,9.45
2019-05-22T08:13:28.190Z,22.22
2019-05-22T08:15:59.785Z,6.17
2019-05-22T08:18:32.773Z,6.05
2019-05-22T08:21:04.719Z,4.47
2019-05-22T08:23:36.919Z,4.47
2019-05-22T08:26:08.907Z,5.62
2019-05-22T08:28:40.691Z,3.87
2019-05-22T08:31:13.387Z,6.83
2019-05-22T08:33:45.043Z,6.65
2019-05-22T08:36:16.672Z,7.30
2019-05-22T08:38:48.585Z,5.92
2019-05-22T08:41:21.664Z,6.55
2019-05-22T08:44:14.541Z,4.75
2019-05-22T08:46:26.006Z,4.35
2019-05-22T08:48:58.060Z,5.65
2019-05-22T08:51:30.028Z,5.10
2019-05-22T08:54:05.793Z,7.25
2019-05-22T08:56:39.230Z,5.40
2019-05-22T08:59:19.492Z,8.68
2019-05-22T09:01:44.632Z,5.20
2019-05-22T09:04:16.507Z,4.92
2019-05-22T09:06:48.151Z,4.58
2019-05-22T09:09:20.084Z,9.83
2019-05-22T09:11:51.812Z,5.30
2019-05-22T09:14:23.697Z,8.60
2019-05-22T09:16:56.018Z,4.97
2019-05-22T09:19:30.706Z,4.35
2019-05-22T09:22:05.138Z,7.37
2019-05-22T09:24:37.043Z,5.58
2019-05-22T09:27:08.985Z,5.40
2019-05-22T09:29:43.602Z,5.03
2019-05-22T09:32:15.282Z,5.33
2019-05-22T09:34:47.306Z,5.17
2019-05-22T09:37:18.849Z,7.35
2019-05-22T09:39:50.554Z,4.87
2019-05-22T09:42:22.625Z,7.92
2019-05-22T09:44:54.122Z,6.60
2019-05-22T09:47:26.293Z,6.03
2019-05-22T09:49:58.141Z,4.15
2019-05-22T09:52:32.292Z,5.62
2019-05-22T09:55:03.808Z,8.40
2019-05-22T09:57:36.941Z,13.70
2019-05-22T10:00:13.082Z,8.50
2019-05-22T10:02:45.059Z,7.03
2019-05-22T10:05:16.660Z,6.90
2019-05-22T10:07:59.272Z,4.65
2019-05-22T10:10:21.629Z,14.40
2019-05-22T10:12:53.656Z,4.85
2019-05-22T10:15:26.515Z,5.05
2019-05-22T10:17:58.479Z,7.35
2019-05-22T10:20:30.122Z,4.72
2019-05-22T10:23:14.951Z,6.95
2019-05-22T10:25:35.241Z,8.60
2019-05-22T10:28:08.374Z,10.68
2019-05-22T10:30:40.009Z,5.67
2019-05-22T10:33:12.285Z,9.53
2019-05-22T10:35:43.838Z,7.33
2019-05-22T10:38:15.843Z,8.13
2019-05-22T10:40:47.567Z,8.45
2019-05-22T10:43:19.462Z,7.72
2019-05-22T10:45:51.232Z,7.87
2019-05-22T10:48:23.103Z,9.28
2019-05-22T10:50:54.825Z,9.23
2019-05-22T10:53:33.700Z,10.10
2019-05-22T10:55:59.906Z,11.50
2019-05-22T10:58:31.660Z,9.20
2019-05-22T11:01:03.215Z,8.63
2019-05-22T11:03:35.571Z,9.75
2019-05-22T11:06:08.039Z,9.43
2019-05-22T11:08:40.314Z,9.38
2019-05-22T11:11:12.087Z,14.73
2019-05-22T11:14:00.063Z,6.80
2019-05-22T11:16:17.094Z,11.25
2019-05-22T11:18:49.055Z,12.73
2019-05-22T11:21:20.906Z,13.30
2019-05-22T11:23:53.303Z,12.58
2019-05-22T11:26:24.949Z,7.30
2019-05-22T11:28:56.918Z,10.38
2019-05-22T11:31:28.966Z,14.70
2019-05-22T11:34:00.802Z,10.60
2019-05-22T11:36:32.789Z,10.05
2019-05-22T11:39:05.802Z,11.43
2019-05-22T11:41:37.377Z,9.53
2019-05-22T11:44:09.523Z,9.40
2019-05-22T11:46:41.789Z,9.48
2019-05-22T11:49:13.435Z,23.70
2019-05-22T11:51:45.193Z,17.23
2019-05-22T11:54:19.536Z,6.12
2019-05-22T11:56:51.201Z,12.07
2019-05-22T11:59:23.097Z,10.93
2019-05-22T12:01:55.146Z,10.48
2019-05-22T12:04:27.042Z,16.15
2019-05-22T12:06:58.686Z,10.43
2019-05-22T12:09:32.418Z,15.05
2019-05-22T12:12:04.803Z,15.60
2019-05-22T12:14:36.937Z,19.30
2019-05-22T12:17:12.051Z,16.40
2019-05-22T12:19:44.360Z,15.25
2019-05-22T12:22:19.703Z,17.23
2019-05-22T12:24:49.361Z,16.67
2019-05-22T12:27:21.396Z,9.90
2019-05-22T12:29:56.750Z,10.63
2019-05-22T12:32:28.995Z,13.58
2019-05-22T12:35:01.134Z,13.68
2019-05-22T12:37:32.626Z,13.68
2019-05-22T12:40:05.322Z,10.72
2019-05-22T12:42:37.080Z,13.32
2019-05-22T12:45:10.879Z,10.68
2019-05-22T12:47:43.208Z,11.83
2019-05-22T12:50:16.836Z,16.52
2019-05-22T12:52:50.185Z,15.43
2019-05-22T12:55:23.717Z,17.12
2019-05-22T12:57:55.346Z,10.32
2019-05-22T13:00:28.623Z,11.95
2019-05-22T13:03:01.357Z,11.00
2019-05-22T13:05:33.763Z,10.85
2019-05-22T13:08:05.504Z,12.25
2019-05-22T13:10:37.606Z,8.95
2019-05-22T13:13:09.494Z,10.98
2019-05-22T13:15:41.151Z,10.82
2019-05-22T13:18:14.256Z,9.80
2019-05-22T13:20:46.665Z,11.85
2019-05-22T13:23:19.795Z,17.17
2019-05-22T13:25:51.466Z,12.47
2019-05-22T13:28:23.430Z,18.65
2019-05-22T13:30:56.302Z,8.53
2019-05-22T13:33:29.384Z,11.05
2019-05-22T13:36:01.114Z,24.05
2019-05-22T13:38:33.258Z,20.08
2019-05-22T13:41:05.294Z,16.15
2019-05-22T13:43:37.494Z,22.15
2019-05-22T13:46:09.141Z,16.75
2019-05-22T13:48:41.110Z,13.00
2019-05-22T13:51:13.092Z,15.18
2019-05-22T13:53:45.183Z,16.52
2019-05-22T13:56:17.147Z,16.07
2019-05-22T13:58:49.033Z,13.40
2019-05-22T14:01:20.611Z,15.90
2019-05-22T14:03:52.324Z,10.45
2019-05-22T14:06:24.350Z,13.85
2019-05-22T14:08:56.237Z,15.18
2019-05-22T14:11:28.248Z,18.92
2019-05-22T14:14:00.062Z,10.58
2019-05-22T14:16:32.339Z,14.43
2019-05-22T14:19:04.059Z,7.08
2019-05-22T14:21:35.905Z,12.95
2019-05-22T14:24:07.521Z,9.05
2019-05-22T14:26:39.483Z,8.48
2019-05-22T14:29:11.237Z,11.10
2019-05-22T14:31:43.107Z,11.35
2019-05-22T14:34:14.675Z,7.50
2019-05-22T14:36:46.703Z,8.88
2019-05-22T14:39:18.900Z,18.10
2019-05-22T14:41:50.967Z,14.38
2019-05-22T14:44:23.037Z,12.35
2019-05-22T14:46:54.854Z,20.62
2019-05-22T14:49:26.659Z,9.03
2019-05-22T14:51:58.536Z,14.20
2019-05-22T14:54:30.260Z,11.28
2019-05-22T14:57:02.364Z,8.38
2019-05-22T14:59:33.950Z,10.43
2019-05-22T15:02:05.915Z,10.68
2019-05-22T15:04:38.671Z,10.32
2019-05-22T15:07:10.627Z,8.73
2019-05-22T15:09:42.177Z,14.00
2019-05-22T15:12:14.069Z,13.43
2019-05-22T15:14:45.690Z,13.65
2019-05-22T15:17:31.869Z,9.85
2019-05-22T15:19:50.596Z,9.68
2019-05-22T15:22:22.532Z,18.05
2019-05-22T15:24:54.276Z,9.93
2019-05-22T15:27:26.135Z,15.90
2019-05-22T15:29:58.053Z,8.95
2019-05-22T15:32:29.710Z,11.28
2019-05-22T15:35:01.679Z,10.48
2019-05-22T15:37:34.279Z,11.15
2019-05-22T15:40:06.126Z,12.20
2019-05-22T15:42:39.570Z,14.35
2019-05-22T15:45:15.870Z,12.68
2019-05-22T15:47:55.640Z,16.45
2019-05-22T15:50:26.648Z,19.07
2019-05-22T15:53:01.081Z,16.40
2019-05-22T15:55:34.758Z,16.07
2019-05-22T15:58:08.031Z,11.55
2019-05-22T16:00:41.364Z,15.40
2019-05-22T16:03:18.245Z,16.02
2019-05-22T16:05:50.780Z,13.72
2019-05-22T16:08:22.667Z,14.85
2019-05-22T16:10:58.857Z,15.00
2019-05-22T16:13:28.479Z,15.78
2019-05-22T16:16:00.827Z,15.95
2019-05-22T16:18:33.982Z,14.78
2019-05-22T16:21:07.395Z,12.95
2019-05-22T16:23:40.482Z,16.10
2019-05-22T16:26:13.031Z,17.80
2019-05-22T16:28:45.794Z,13.70
2019-05-22T16:31:17.931Z,13.00
2019-05-22T16:33:50.018Z,21.55
2019-05-22T16:36:22.354Z,13.80
2019-05-22T16:38:54.585Z,11.65
2019-05-22T16:41:26.723Z,14.00
2019-05-22T16:43:58.911Z,14.23
2019-05-22T16:46:30.486Z,12.60
2019-05-22T16:49:02.486Z,17.73
2019-05-22T16:51:34.278Z,11.22
2019-05-22T16:54:07.793Z,19.65
2019-05-22T16:56:39.639Z,15.75
2019-05-22T16:59:12.867Z,13.05
2019-05-22T17:01:58.854Z,14.58
2019-05-22T17:04:18.416Z,10.00
2019-05-22T17:06:50.612Z,13.80
2019-05-22T17:09:22.859Z,14.25
2019-05-22T17:11:55.047Z,11.95
2019-05-22T17:14:27.585Z,13.22
2019-05-22T17:16:59.282Z,24.92
2019-05-22T17:19:31.147Z,14.07
2019-05-22T17:22:03.197Z,18.95
2019-05-22T17:24:35.060Z,16.77
2019-05-22T17:27:06.906Z,11.03
2019-05-22T17:29:38.909Z,12.55
2019-05-22T17:32:11.744Z,15.53
2019-05-22T17:34:43.562Z,12.60
2019-05-22T17:37:16.692Z,18.45
2019-05-22T17:39:49.991Z,14.35
2019-05-22T17:42:22.203Z,18.02
2019-05-22T17:44:54.505Z,17.73
2019-05-22T17:47:27.751Z,15.58
2019-05-22T17:50:00.107Z,17.10
2019-05-22T17:52:32.069Z,13.55
2019-05-22T17:55:04.002Z,18.85
2019-05-22T17:57:35.738Z,15.40
2019-05-22T18:00:11.959Z,15.95
2019-05-22T18:02:43.539Z,14.98
2019-05-22T18:05:15.777Z,14.33
2019-05-22T18:07:48.004Z,13.53
2019-05-22T18:10:19.664Z,16.27
2019-05-22T18:12:51.141Z,16.73
2019-05-22T18:15:24.807Z,13.20
2019-05-22T18:17:56.612Z,14.38
2019-05-22T18:20:41.856Z,17.42
2019-05-22T18:23:01.832Z,15.80
2019-05-22T18:25:34.334Z,13.40
2019-05-22T18:28:06.299Z,13.43
2019-05-22T18:30:39.584Z,13.05
2019-05-22T18:33:11.337Z,15.48
2019-05-22T18:35:43.152Z,11.90
2019-05-22T18:38:14.773Z,12.90
2019-05-22T18:40:46.986Z,15.55
2019-05-22T18:43:18.938Z,15.05
2019-05-22T18:45:50.907Z,15.15
2019-05-22T18:48:22.943Z,15.13
2019-05-22T18:50:55.222Z,16.42
2019-05-22T18:53:26.772Z,10.90
2019-05-22T18:55:58.390Z,12.23
2019-05-22T18:58:30.278Z,14.90
2019-05-22T19:01:04.110Z,9.23
2019-05-22T19:03:35.992Z,14.73
2019-05-22T19:06:07.687Z,11.20
2019-05-22T19:08:39.368Z,9.23
2019-05-22T19:11:11.244Z,10.50
2019-05-22T19:13:42.728Z,12.15
2019-05-22T19:16:14.865Z,8.68
2019-05-22T19:18:46.829Z,9.25
2019-05-22T19:21:18.747Z,8.48
2019-05-22T19:23:50.347Z,14.20
2019-05-22T19:26:22.030Z,15.98
2019-05-22T19:28:54.015Z,11.08
2019-05-22T19:31:25.950Z,10.10
2019-05-22T19:33:57.608Z,15.13
2019-05-22T19:36:29.203Z,17.23
2019-05-22T19:39:00.572Z,12.75
2019-05-22T19:41:32.380Z,8.00
2019-05-22T19:44:04.759Z,12.88
2019-05-22T19:46:36.649Z,14.15
2019-05-22T19:49:08.883Z,18.37
2019-05-22T19:51:41.258Z,14.43
2019-05-22T19:54:13.539Z,15.32
2019-05-22T19:56:45.575Z,12.95
2019-05-22T19:59:18.315Z,13.75
2019-05-22T20:01:50.967Z,15.48
2019-05-22T20:04:22.554Z,21.52
2019-05-22T20:06:54.507Z,13.62
2019-05-22T20:09:27.157Z,16.50
2019-05-22T20:11:59.556Z,14.33
2019-05-22T20:14:30.937Z,19.70
2019-05-22T20:17:03.051Z,14.18
2019-05-22T20:19:34.522Z,12.65
2019-05-22T20:22:06.010Z,14.28
2019-05-22T20:24:37.778Z,13.78
2019-05-22T20:27:10.102Z,12.88
2019-05-22T20:29:42.105Z,13.48
2019-05-22T20:32:15.398Z,16.45
2019-05-22T20:34:47.676Z,13.93
2019-05-22T20:37:19.537Z,13.32
2019-05-22T20:39:51.379Z,11.03
2019-05-22T20:42:23.241Z,11.83
2019-05-22T20:44:55.339Z,13.20
2019-05-22T20:47:28.383Z,10.65
2019-05-22T20:50:01.525Z,18.37
2019-05-22T20:52:33.277Z,9.33
2019-05-22T20:55:05.148Z,12.00
2019-05-22T20:57:37.068Z,19.07
2019-05-22T21:00:09.846Z,13.53
2019-05-22T21:02:41.683Z,13.65
2019-05-22T21:05:14.752Z,16.60
2019-05-22T21:07:50.867Z,12.88
2019-05-22T21:10:24.690Z,12.78
2019-05-22T21:12:57.552Z,15.30
2019-05-22T21:15:30.790Z,10.30
2019-05-22T21:18:02.546Z,14.55
2019-05-22T21:20:34.524Z,15.48
2019-05-22T21:23:06.410Z,16.70
2019-05-22T21:25:38.100Z,14.03
2019-05-22T21:28:11.016Z,14.23
2019-05-22T21:30:43.026Z,11.93
2019-05-22T21:33:15.412Z,17.75
2019-05-22T21:35:47.123Z,14.90
2019-05-22T21:38:19.605Z,14.98
2019-05-22T21:40:52.493Z,18.40
2019-05-22T21:43:24.465Z,14.00
2019-05-22T21:45:56.028Z,13.25
2019-05-22T21:48:27.672Z,13.03
2019-05-22T21:50:59.681Z,14.60
2019-05-22T21:53:31.091Z,14.50
2019-05-22T21:56:05.954Z,20.52
2019-05-22T21:58:35.992Z,19.48
2019-05-22T22:01:11.821Z,21.90
2019-05-22T22:03:55.976Z,19.82
2019-05-22T22:06:32.761Z,17.95
2019-05-22T22:09:02.246Z,17.73
2019-05-22T22:11:34.919Z,15.00
2019-05-22T22:14:07.670Z,17.77
2019-05-22T22:16:40.900Z,17.17
2019-05-22T22:19:12.546Z,14.63
2019-05-22T22:21:44.630Z,11.70
2019-05-22T22:24:16.669Z,12.13
2019-05-22T22:26:48.656Z,11.03
2019-05-22T22:29:20.318Z,17.48
2019-05-22T22:31:53.336Z,12.98
2019-05-22T22:34:27.758Z,15.25
2019-05-22T22:36:59.627Z,18.75
2019-05-22T22:39:32.506Z,12.93
2019-05-22T22:42:05.538Z,13.08
2019-05-22T22:44:38.258Z,17.90
2019-05-22T22:47:16.872Z,15.85
2019-05-22T22:49:49.558Z,18.62
2019-05-22T22:52:21.538Z,16.80
2019-05-22T22:54:54.021Z,26.93
2019-05-22T22:57:25.826Z,20.40
2019-05-22T22:59:58.032Z,15.15
2019-05-22T23:02:32.338Z,19.67
2019-05-22T23:05:04.713Z,18.67
2019-05-22T23:07:36.997Z,16.48
2019-05-22T23:10:11.007Z,18.82
2019-05-22T23:12:42.930Z,17.82
2019-05-22T23:15:18.111Z,20.48
2019-05-22T23:17:48.097Z,17.45
2019-05-22T23:20:18.594Z,17.87
2019-05-22T23:22:49.159Z,16.20
2019-05-22T23:25:21.620Z,19.20
2019-05-22T23:27:53.238Z,14.23
2019-05-22T23:30:48.556Z,26.65
2019-05-22T23:33:20.661Z,23.98
2019-05-22T23:35:52.652Z,40.70
2019-05-22T23:38:24.506Z,30.82
2019-05-22T23:40:56.373Z,20.30
2019-05-22T23:43:29.246Z,23.87
2019-05-22T23:46:01.868Z,20.05
2019-05-22T23:48:34.685Z,16.20
2019-05-22T23:51:07.723Z,17.80
2019-05-22T23:53:40.425Z,14.45
2019-05-22T23:56:12.846Z,19.02
2019-05-22T23:58:52.686Z,14.00
